This is the latest recevied weather packets stored in our database for station/object EB2BAG-11. If no packets are shown the sender has not sent any weather packets the latest 10 day(s).
| Time | Temp. | Humidity | Pressure | Rain* | Wind** | Luminosity | Snow |
|---|---|---|---|---|---|---|---|
| 1777821354 | 18.33° C | 74% | 1012.3 hPa | - | - | - | - |
| 1777820154 | 18.33° C | 71% | 1013.1 hPa | - | - | - | - |
| 1777818954 | 18.33° C | 70% | 1013.3 hPa | - | - | - | - |
| 1777817754 | 18.89° C | 69% | 1013.5 hPa | - | - | - | - |
| 1777816554 | 18.89° C | 75% | 1013.7 hPa | - | - | - | - |
| 1777815354 | 18.33° C | 78% | 1013.6 hPa | - | - | - | - |
| 1777814154 | 18.33° C | 73% | 1013.5 hPa | - | - | - | - |
| 1777812954 | 20° C | 68% | 1013.2 hPa | - | - | - | - |
| 1777811754 | 21.11° C | 57% | 1013 hPa | - | - | - | - |
| 1777810554 | 20.56° C | 56% | 1012.9 hPa | - | - | - | - |
| 1777809354 | 21.11° C | 56% | 1012.8 hPa | - | - | - | - |
| 1777808153 | 21.11° C | 56% | 1013.1 hPa | - | - | - | - |
| 1777806953 | 21.11° C | 56% | 1013.3 hPa | - | - | - | - |
| 1777805752 | 21.11° C | 58% | 1013.4 hPa | - | - | - | - |
| 1777804553 | 21.67° C | 57% | 1013.5 hPa | - | - | - | - |
| 1777803352 | 21.67° C | 57% | 1013.6 hPa | - | - | - | - |
| 1777802152 | 21.11° C | 60% | 1013.7 hPa | - | - | - | - |
| 1777800952 | 21.67° C | 58% | 1013.7 hPa | - | - | - | - |
| 1777799752 | 20.56° C | 62% | 1013.8 hPa | - | - | - | - |
| 1777798552 | 19.44° C | 67% | 1013.9 hPa | - | - | - | - |
| 1777797352 | 18.89° C | 74% | 1013.9 hPa | - | - | - | - |
| 1777796152 | 18.33° C | 79% | 1014.1 hPa | - | - | - | - |
| 1777794952 | 17.78° C | 82% | 1014.3 hPa | - | - | - | - |
| 1777793752 | 16.67° C | 84% | 1014.3 hPa | - | - | - | - |
| 1777792551 | 16.67° C | 83% | 1014.3 hPa | - | - | - | - |
* Rain since midnight (hover to see other rain measurements)
** Current wind speed in m/s (hover to see current wind gust speed)